Time;durP1;ratioP1;P1;durP2;ratioP2;P2;SDS_P1;SDS_P2;PMS_P1;PMS_P2;Temp;Humidity;BMP_temperature;BMP_pressure;BME280_temperature;BME280_humidity;BME280_pressure;Samples;Min_cycle;Max_cycle;Signal;HPM_P1;HPM_P2
2022/08/25 00:01:24;;;;;;;15.75;14.05;;;16.50;99.90;;;;;;5094325;28;20250;-80
2022/08/25 00:03:51;;;;;;;16.05;14.10;;;16.50;99.90;;;;;;5094439;28;20651;-80
2022/08/25 00:06:19;;;;;;;17.73;13.68;;;16.40;99.90;;;;;;5094221;28;20199;-80
2022/08/25 00:08:46;;;;;;;14.90;13.40;;;16.50;99.90;;;;;;5094032;28;20297;-80
2022/08/25 00:11:15;;;;;;;18.67;14.07;;;16.50;99.90;;;;;;5093904;28;20652;-80
2022/08/25 00:13:44;;;;;;;17.52;14.05;;;16.40;99.90;;;;;;5094129;28;20222;-80
2022/08/25 00:16:11;;;;;;;16.42;13.25;;;16.30;99.90;;;;;;5094154;28;20684;-80
2022/08/25 00:18:40;;;;;;;15.02;13.52;;;16.30;99.90;;;;;;5093891;28;20227;-80
2022/08/25 00:21:08;;;;;;;16.25;13.23;;;16.30;99.90;;;;;;5093709;28;20224;-80
2022/08/25 00:23:35;;;;;;;16.63;13.23;;;16.40;99.90;;;;;;5093701;28;20197;-80
2022/08/25 00:26:02;;;;;;;18.17;14.00;;;16.40;99.90;;;;;;5093962;28;20273;-80
2022/08/25 00:28:29;;;;;;;16.27;13.45;;;16.30;99.90;;;;;;5093787;28;20226;-80
2022/08/25 00:30:57;;;;;;;15.30;13.65;;;16.30;99.90;;;;;;5093536;28;20204;-80
2022/08/25 00:33:25;;;;;;;16.98;14.35;;;16.20;99.90;;;;;;5093553;28;20200;-80
2022/08/25 00:35:53;;;;;;;16.92;15.13;;;16.00;99.90;;;;;;5093665;28;20278;-80
2022/08/25 00:38:20;;;;;;;17.47;14.03;;;16.00;99.90;;;;;;5093440;28;20200;-80
2022/08/25 00:41:04;;;;;;;18.35;15.02;;;16.00;99.90;;;;;;5093587;28;20200;-80
2022/08/25 00:43:35;;;;;;;17.20;13.70;;;16.00;99.90;;;;;;5093672;28;20223;-80
2022/08/25 00:46:02;;;;;;;16.73;13.85;;;16.00;99.90;;;;;;5093447;28;20602;-80
2022/08/25 00:48:28;;;;;;;18.20;14.70;;;16.10;99.90;;;;;;5093439;28;20254;-80
2022/08/25 00:50:56;;;;;;;16.92;14.25;;;16.00;99.90;;;;;;5093230;28;20852;-79
2022/08/25 00:53:23;;;;;;;16.07;14.37;;;15.90;99.90;;;;;;5093431;28;20242;-80
2022/08/25 00:55:50;;;;;;;17.83;15.00;;;15.90;99.90;;;;;;5093057;28;20228;-80
2022/08/25 00:58:23;;;;;;;17.67;14.67;;;15.90;99.90;;;;;;5092591;28;20713;-80
2022/08/25 01:00:52;;;;;;;17.10;14.70;;;15.90;99.90;;;;;;5093189;28;20605;-78
2022/08/25 01:03:20;;;;;;;19.65;15.18;;;15.90;99.90;;;;;;5093043;28;20245;-79
2022/08/25 01:05:48;;;;;;;18.40;16.17;;;15.90;99.90;;;;;;5093003;28;20201;-79
2022/08/25 01:08:20;;;;;;;16.77;14.93;;;15.80;99.90;;;;;;5092989;28;20656;-80
2022/08/25 01:10:47;;;;;;;16.23;14.53;;;15.90;99.90;;;;;;5093150;28;20227;-79
2022/08/25 01:13:19;;;;;;;16.20;14.50;;;15.80;99.90;;;;;;5093103;28;20200;-79
2022/08/25 01:15:46;;;;;;;15.27;13.70;;;15.70;99.90;;;;;;5092972;28;20200;-80
2022/08/25 01:18:14;;;;;;;20.33;14.48;;;15.70;99.90;;;;;;5093006;28;20659;-78
2022/08/25 01:20:41;;;;;;;16.80;13.60;;;15.70;99.90;;;;;;5092862;28;20651;-78
2022/08/25 01:23:09;;;;;;;15.53;13.93;;;15.70;99.90;;;;;;5093070;28;20352;-78
2022/08/25 01:25:43;;;;;;;15.00;13.40;;;15.80;99.90;;;;;;5093029;28;20200;-79
2022/08/25 01:28:10;;;;;;;18.00;14.40;;;15.70;99.90;;;;;;5092889;28;20598;-79
2022/08/25 01:30:37;;;;;;;15.73;13.80;;;15.60;99.90;;;;;;5093084;28;20200;-79
2022/08/25 01:33:05;;;;;;;15.20;13.70;;;15.60;99.90;;;;;;5093031;28;20250;-80
2022/08/25 01:35:33;;;;;;;18.50;15.40;;;15.60;99.90;;;;;;5093219;28;20197;-80
2022/08/25 01:37:59;;;;;;;17.00;13.97;;;15.60;99.90;;;;;;5092819;28;20221;-80
2022/08/25 01:40:28;;;;;;;19.13;14.67;;;15.40;99.90;;;;;;5093046;28;20201;-80
2022/08/25 01:43:03;;;;;;;17.08;15.07;;;15.30;99.90;;;;;;5092714;28;20237;-80
2022/08/25 01:45:30;;;;;;;19.50;15.27;;;15.20;99.90;;;;;;5092970;28;20258;-80
2022/08/25 01:47:56;;;;;;;17.27;14.77;;;15.10;99.90;;;;;;5092839;28;20197;-78
2022/08/25 01:50:23;;;;;;;20.27;15.77;;;15.10;99.90;;;;;;5092748;28;20206;-80
2022/08/25 01:52:54;;;;;;;19.63;14.83;;;15.20;99.90;;;;;;5092642;28;20200;-80
2022/08/25 01:55:21;;;;;;;17.73;15.70;;;15.20;99.90;;;;;;5092535;28;20606;-80
2022/08/25 01:57:49;;;;;;;18.57;15.43;;;15.20;99.90;;;;;;5092813;28;20233;-80
2022/08/25 02:00:17;;;;;;;20.20;15.77;;;15.10;99.90;;;;;;5092786;28;20329;-80
2022/08/25 02:02:44;;;;;;;17.87;16.00;;;15.00;99.90;;;;;;5092590;28;20235;-80
2022/08/25 02:05:12;;;;;;;18.87;16.67;;;15.00;99.90;;;;;;5092617;28;20192;-80
2022/08/25 02:07:38;;;;;;;18.30;15.90;;;14.90;99.90;;;;;;5092540;28;20204;-80
2022/08/25 02:10:06;;;;;;;17.13;14.63;;;14.90;99.90;;;;;;5093909;28;20200;-80
2022/08/25 02:12:35;;;;;;;17.20;14.97;;;14.80;99.90;;;;;;5096469;28;20197;-80
2022/08/25 02:15:07;;;;;;;18.60;15.63;;;14.90;99.90;;;;;;5096453;28;20224;-80
2022/08/25 02:17:36;;;;;;;18.53;15.17;;;14.90;99.90;;;;;;5096176;28;20651;-80
2022/08/25 02:20:05;;;;;;;19.90;16.27;;;14.90;99.90;;;;;;5096092;28;20196;-80
2022/08/25 02:22:31;;;;;;;18.27;15.20;;;14.90;99.90;;;;;;5095949;28;20227;-80
2022/08/25 02:24:58;;;;;;;21.77;17.87;;;14.80;99.90;;;;;;5096180;28;20204;-79
2022/08/25 02:27:25;;;;;;;21.17;16.53;;;14.80;99.90;;;;;;5096137;28;20599;-80
2022/08/25 02:29:52;;;;;;;19.13;16.87;;;14.80;99.90;;;;;;5096095;28;20196;-80
2022/08/25 02:32:20;;;;;;;19.17;16.17;;;14.70;99.90;;;;;;5096197;28;20283;-78
2022/08/25 02:34:46;;;;;;;16.93;15.13;;;14.70;99.90;;;;;;5095824;28;20197;-79
2022/08/25 02:37:13;;;;;;;19.30;15.97;;;14.70;99.90;;;;;;5095696;28;20204;-78
2022/08/25 02:39:40;;;;;;;19.83;17.20;;;14.70;99.90;;;;;;5096049;28;20196;-78
2022/08/25 02:42:06;;;;;;;20.30;16.57;;;14.70;99.90;;;;;;5095765;28;20246;-78
2022/08/25 02:44:33;;;;;;;19.37;17.13;;;14.60;99.90;;;;;;5095752;28;20196;-80
2022/08/25 02:47:00;;;;;;;20.13;17.73;;;14.60;99.90;;;;;;5095672;28;20246;-79
2022/08/25 02:49:28;;;;;;;18.93;16.87;;;14.50;99.90;;;;;;5095462;28;20204;-78
2022/08/25 02:51:55;;;;;;;23.20;18.03;;;14.50;99.90;;;;;;5095684;28;20196;-80
2022/08/25 02:54:22;;;;;;;19.80;16.97;;;14.50;99.90;;;;;;5095418;28;20302;-80
2022/08/25 02:56:49;;;;;;;18.73;16.73;;;14.50;99.90;;;;;;5095428;28;20200;-80
2022/08/25 02:59:18;;;;;;;18.83;16.83;;;14.40;99.90;;;;;;5095303;28;20207;-80
2022/08/25 03:01:45;;;;;;;21.53;17.70;;;14.50;99.90;;;;;;5095120;28;20683;-80
2022/08/25 03:04:12;;;;;;;24.43;18.03;;;14.60;99.90;;;;;;5095130;28;20193;-81
2022/08/25 03:06:40;;;;;;;20.77;17.77;;;14.60;99.90;;;;;;5095314;28;20602;-80
2022/08/25 03:09:07;;;;;;;20.97;17.37;;;14.60;99.90;;;;;;5095296;28;20196;-79
2022/08/25 03:11:37;;;;;;;21.90;17.50;;;14.50;99.90;;;;;;5095152;28;20200;-79
2022/08/25 03:14:03;;;;;;;22.33;17.83;;;14.50;99.90;;;;;;5095326;28;20743;-80
2022/08/25 03:16:30;;;;;;;24.13;17.83;;;14.40;99.90;;;;;;5095049;28;20250;-80
2022/08/25 03:18:58;;;;;;;25.90;18.77;;;14.40;99.90;;;;;;5095242;28;20204;-80
2022/08/25 03:21:25;;;;;;;21.47;18.50;;;14.40;99.90;;;;;;5094664;28;20204;-80
2022/08/25 03:23:53;;;;;;;23.60;18.13;;;14.40;99.90;;;;;;5095451;28;20273;-80
2022/08/25 03:29:04;;;;;;;22.27;18.57;;;14.40;99.90;;;;;;5105405;28;20563;-80
2022/08/25 03:31:32;;;;;;;22.50;18.57;;;14.50;99.90;;;;;;5095084;28;20202;-80
2022/08/25 03:33:59;;;;;;;21.50;17.33;;;14.50;99.90;;;;;;5095109;28;20211;-80
2022/08/25 03:36:26;;;;;;;22.90;18.13;;;14.40;99.90;;;;;;5094760;28;20230;-80
2022/08/25 03:38:55;;;;;;;20.90;17.17;;;14.40;99.90;;;;;;5094703;28;20196;-80
2022/08/25 03:41:24;;;;;;;24.03;17.90;;;14.40;99.90;;;;;;5094508;28;20605;-80
2022/08/25 03:43:52;;;;;;;27.90;18.17;;;14.50;99.90;;;;;;5094385;28;20224;-80
2022/08/25 03:46:20;;;;;;;22.77;17.90;;;14.50;99.90;;;;;;5094790;28;20246;-80
2022/08/25 03:48:48;;;;;;;21.90;18.00;;;14.50;99.90;;;;;;5094707;28;20215;-80
2022/08/25 03:51:20;;;;;;;27.63;18.90;;;14.50;99.90;;;;;;5094603;28;20239;-80
2022/08/25 03:53:46;;;;;;;23.77;19.03;;;14.50;99.90;;;;;;5094528;28;20200;-80
2022/08/25 03:56:15;;;;;;;22.23;18.10;;;14.40;99.90;;;;;;5094520;28;20200;-80
2022/08/25 03:58:42;;;;;;;24.57;18.20;;;14.30;99.90;;;;;;5094412;28;20200;-80
2022/08/25 04:01:08;;;;;;;23.37;17.73;;;14.30;99.90;;;;;;5094433;28;20250;-79
2022/08/25 04:03:35;;;;;;;21.53;17.63;;;14.20;99.90;;;;;;5094212;28;20281;-80
2022/08/25 04:06:03;;;;;;;22.50;18.87;;;14.20;99.90;;;;;;5094198;28;20208;-80
2022/08/25 04:08:30;;;;;;;23.47;18.93;;;14.20;99.90;;;;;;5094039;28;20724;-80
2022/08/25 04:10:57;;;;;;;22.93;17.87;;;14.10;99.90;;;;;;5094564;28;20253;-80
2022/08/25 04:13:25;;;;;;;21.80;17.57;;;14.10;99.90;;;;;;5094095;28;20197;-80
2022/08/25 04:15:51;;;;;;;21.73;18.10;;;14.20;99.90;;;;;;5093981;28;20200;-80
2022/08/25 04:18:18;;;;;;;24.50;17.90;;;14.20;99.90;;;;;;5094020;28;20200;-80
2022/08/25 04:20:46;;;;;;;23.60;18.90;;;14.20;99.90;;;;;;5093856;28;20196;-80
2022/08/25 04:23:12;;;;;;;22.57;18.23;;;14.10;99.90;;;;;;5093676;28;20603;-78
2022/08/25 04:25:41;;;;;;;22.53;18.27;;;14.10;99.90;;;;;;5093980;28;20200;-79
2022/08/25 04:28:08;;;;;;;24.47;18.47;;;14.10;99.90;;;;;;5093975;28;20223;-80
2022/08/25 04:30:41;;;;;;;22.57;17.93;;;14.20;99.90;;;;;;5093779;28;20288;-80
2022/08/25 04:33:08;;;;;;;23.27;18.30;;;14.20;99.90;;;;;;5092756;28;20197;-80
2022/08/25 04:35:34;;;;;;;25.10;18.87;;;14.20;99.90;;;;;;5093550;28;20196;-80
2022/08/25 04:38:01;;;;;;;21.93;19.00;;;14.10;99.90;;;;;;5093695;28;20207;-79
2022/08/25 04:40:28;;;;;;;22.87;18.57;;;14.10;99.90;;;;;;5093593;28;20200;-79
2022/08/25 04:42:54;;;;;;;21.90;17.70;;;14.20;99.90;;;;;;5093475;28;20220;-81
2022/08/25 04:45:21;;;;;;;20.90;17.13;;;14.10;99.90;;;;;;5093411;28;20200;-79
2022/08/25 04:47:49;;;;;;;21.43;17.73;;;14.10;99.90;;;;;;5093329;28;20690;-80
2022/08/25 04:50:16;;;;;;;22.70;18.63;;;14.20;99.90;;;;;;5093271;28;20253;-79
2022/08/25 04:52:43;;;;;;;21.13;17.90;;;14.20;99.90;;;;;;5093243;28;20200;-79
2022/08/25 04:55:09;;;;;;;21.40;17.73;;;14.20;99.90;;;;;;5093192;28;20235;-79
2022/08/25 04:57:36;;;;;;;24.57;18.97;;;14.30;99.90;;;;;;5093373;28;20200;-80
2022/08/25 05:00:04;;;;;;;24.80;18.17;;;14.50;99.90;;;;;;5093738;28;20291;-80
2022/08/25 05:02:31;;;;;;;23.67;17.63;;;14.50;99.90;;;;;;5093160;28;20231;-80
2022/08/25 05:05:00;;;;;;;22.87;18.53;;;14.50;99.90;;;;;;5093378;28;20200;-80
2022/08/25 05:07:27;;;;;;;19.67;17.10;;;14.50;99.90;;;;;;5093997;28;20230;-79
2022/08/25 05:09:54;;;;;;;19.97;16.87;;;14.50;99.90;;;;;;5093648;28;20636;-79
2022/08/25 05:12:21;;;;;;;20.13;17.50;;;14.60;99.90;;;;;;5093525;28;20192;-80
2022/08/25 05:14:47;;;;;;;25.27;17.90;;;14.70;99.90;;;;;;5093902;28;20206;-79
2022/08/25 05:17:14;;;;;;;22.50;17.53;;;14.60;99.90;;;;;;5093888;28;20200;-79
2022/08/25 05:19:41;;;;;;;22.00;17.23;;;14.70;99.90;;;;;;5094321;28;20205;-80
2022/08/25 05:22:09;;;;;;;19.57;17.47;;;14.70;99.90;;;;;;5093488;28;20729;-79
2022/08/25 05:24:36;;;;;;;19.73;17.43;;;14.80;99.90;;;;;;5093616;28;20196;-80
2022/08/25 05:27:03;;;;;;;21.23;17.50;;;14.80;99.90;;;;;;5093475;28;20196;-79
2022/08/25 05:29:29;;;;;;;19.70;17.13;;;15.00;99.90;;;;;;5093238;28;20200;-80
2022/08/25 05:31:56;;;;;;;18.70;16.70;;;15.10;99.90;;;;;;5093121;28;20196;-79
2022/08/25 05:34:23;;;;;;;18.50;16.13;;;15.30;99.90;;;;;;5093236;28;20261;-80
2022/08/25 05:36:50;;;;;;;19.83;15.57;;;15.40;99.90;;;;;;5093164;28;20200;-80
2022/08/25 05:39:18;;;;;;;16.70;14.93;;;15.50;99.90;;;;;;5092649;28;20249;-79
2022/08/25 05:41:45;;;;;;;18.77;15.43;;;15.60;99.90;;;;;;5092947;28;20532;-79
2022/08/25 05:44:12;;;;;;;17.90;16.00;;;15.60;99.90;;;;;;5092743;28;20764;-79
2022/08/25 05:46:39;;;;;;;17.87;15.97;;;15.60;99.90;;;;;;5096713;28;20204;-79
2022/08/25 05:49:05;;;;;;;17.40;15.60;;;15.60;99.90;;;;;;5096900;28;20196;-80
2022/08/25 05:51:32;;;;;;;19.73;17.30;;;15.80;99.90;;;;;;5096820;28;20192;-78
2022/08/25 05:53:59;;;;;;;17.43;15.60;;;16.00;99.90;;;;;;5096563;28;20224;-79
2022/08/25 05:56:27;;;;;;;21.50;15.52;;;16.10;99.90;;;;;;5096557;28;20655;-79
2022/08/25 05:58:54;;;;;;;18.17;16.23;;;16.30;99.90;;;;;;5096812;28;20234;-78
2022/08/25 06:04:09;;;;;;;19.08;15.32;;;16.60;99.90;;;;;;5096498;28;20226;-79
2022/08/25 06:06:36;;;;;;;21.75;16.85;;;16.80;99.90;;;;;;5096412;28;20192;-79
2022/08/25 06:09:07;;;;;;;19.42;16.52;;;16.90;99.90;;;;;;5096387;28;20192;-79
2022/08/25 06:11:36;;;;;;;18.88;14.90;;;17.00;99.90;;;;;;5096293;28;20214;-80
2022/08/25 06:14:03;;;;;;;17.45;15.57;;;17.20;99.90;;;;;;5096131;28;20666;-79
2022/08/25 06:16:30;;;;;;;18.48;15.85;;;17.30;99.90;;;;;;5096046;28;20682;-79
2022/08/25 06:18:56;;;;;;;19.73;17.60;;;17.40;99.90;;;;;;5096155;28;20574;-81
2022/08/25 06:21:24;;;;;;;20.95;17.50;;;17.60;99.90;;;;;;5096180;28;20257;-79
2022/08/25 06:23:50;;;;;;;18.20;16.35;;;17.80;99.90;;;;;;5096052;28;20224;-79
2022/08/25 06:26:17;;;;;;;19.17;16.48;;;17.90;99.90;;;;;;5095932;28;20197;-79
2022/08/25 06:28:45;;;;;;;18.38;16.42;;;18.00;99.90;;;;;;5096099;28;20200;-79
2022/08/25 06:31:12;;;;;;;19.25;17.00;;;18.20;99.90;;;;;;5096013;28;20614;-79
2022/08/25 06:33:39;;;;;;;18.38;16.52;;;18.30;99.90;;;;;;5095806;28;20652;-78
2022/08/25 06:36:06;;;;;;;19.05;17.15;;;18.50;99.90;;;;;;5095727;28;20545;-79
2022/08/25 06:38:33;;;;;;;19.55;16.77;;;18.70;99.90;;;;;;5095668;28;20682;-78
2022/08/25 06:41:02;;;;;;;18.58;16.00;;;18.90;99.90;;;;;;5095474;28;20204;-80
2022/08/25 06:43:28;;;;;;;16.10;14.50;;;19.00;99.90;;;;;;5095716;28;20339;-78
2022/08/25 06:45:56;;;;;;;21.27;16.45;;;19.10;99.90;;;;;;5095516;28;20200;-80
2022/08/25 06:48:23;;;;;;;18.90;17.05;;;19.20;99.90;;;;;;5095418;28;20207;-79
2022/08/25 06:50:50;;;;;;;21.70;17.63;;;19.20;99.90;;;;;;5095444;28;20196;-80
2022/08/25 06:53:16;;;;;;;16.98;15.27;;;19.20;99.90;;;;;;5095276;28;20197;-80
2022/08/25 06:55:43;;;;;;;17.10;15.30;;;19.30;99.90;;;;;;5094973;28;20281;-80
2022/08/25 06:58:10;;;;;;;18.70;16.48;;;19.30;99.90;;;;;;5094827;28;20196;-79
2022/08/25 07:00:37;;;;;;;19.08;16.40;;;19.40;99.90;;;;;;5095460;28;20204;-80
2022/08/25 07:03:05;;;;;;;22.75;17.88;;;19.40;99.90;;;;;;5095241;28;20277;-79
2022/08/25 07:05:31;;;;;;;19.55;17.35;;;19.30;99.90;;;;;;5095140;28;20528;-80
2022/08/25 07:07:58;;;;;;;22.60;18.05;;;19.40;99.90;;;;;;5095116;28;20203;-81
2022/08/25 07:10:25;;;;;;;19.10;17.17;;;19.50;99.90;;;;;;5095044;28;20660;-80
2022/08/25 07:12:52;;;;;;;19.27;17.05;;;19.80;99.90;;;;;;5095294;28;20196;-80
2022/08/25 07:15:19;;;;;;;18.63;16.75;;;19.90;99.90;;;;;;5095179;28;20245;-80
2022/08/25 07:17:45;;;;;;;19.08;16.67;;;20.00;99.90;;;;;;5094909;28;20246;-80
2022/08/25 07:20:13;;;;;;;18.05;16.27;;;20.30;99.90;;;;;;5094977;28;20196;-80
2022/08/25 07:22:40;;;;;;;16.65;14.95;;;20.40;99.90;;;;;;5094805;28;20200;-80
2022/08/25 07:25:09;;;;;;;17.58;15.45;;;20.60;99.90;;;;;;5095188;28;20223;-80
2022/08/25 07:27:37;;;;;;;17.77;15.93;;;20.80;99.90;;;;;;5094715;28;20643;-80
2022/08/25 07:30:05;;;;;;;20.35;15.25;;;20.80;99.90;;;;;;5094973;28;20196;-79
2022/08/25 07:32:32;;;;;;;16.90;15.10;;;20.80;99.90;;;;;;5094732;28;20200;-80
2022/08/25 07:35:18;;;;;;;19.52;15.57;;;21.10;99.90;;;;;;5094550;28;20200;-80
2022/08/25 07:37:49;;;;;;;16.52;14.70;;;21.10;99.90;;;;;;5094701;28;20203;-80
2022/08/25 07:40:19;;;;;;;14.45;13.02;;;21.40;99.90;;;;;;5094889;28;20196;-79
2022/08/25 07:42:47;;;;;;;16.42;14.68;;;21.70;99.90;;;;;;5094442;28;20627;-79
2022/08/25 07:45:15;;;;;;;16.80;15.10;;;21.90;99.90;;;;;;5095485;28;20223;-80
2022/08/25 07:47:41;;;;;;;15.77;13.57;;;21.90;99.90;;;;;;5094648;28;20253;-79
2022/08/25 07:50:10;;;;;;;15.75;13.65;;;22.00;99.90;;;;;;5094287;28;20660;-80
2022/08/25 07:52:37;;;;;;;13.52;12.27;;;22.30;99.90;;;;;;5094401;28;20567;-80
2022/08/25 07:55:06;;;;;;;14.80;13.30;;;22.40;99.90;;;;;;5094320;28;20638;-80
2022/08/25 07:57:33;;;;;;;14.32;12.65;;;22.60;99.90;;;;;;5094036;28;20659;-80
2022/08/25 08:00:00;;;;;;;14.48;12.60;;;22.70;99.90;;;;;;5094192;28;20555;-79
2022/08/25 08:02:27;;;;;;;12.88;11.57;;;22.70;99.90;;;;;;5094275;28;20204;-80
2022/08/25 08:04:53;;;;;;;12.70;11.40;;;22.80;99.90;;;;;;5094133;28;20224;-79
2022/08/25 08:07:23;;;;;;;14.38;11.90;;;22.80;99.90;;;;;;5094096;28;20332;-79
2022/08/25 08:09:50;;;;;;;12.05;10.85;;;22.90;99.90;;;;;;5093999;28;20196;-80
2022/08/25 08:12:19;;;;;;;11.20;10.05;;;23.10;99.90;;;;;;5094343;28;20246;-79
2022/08/25 08:14:45;;;;;;;11.38;10.27;;;23.30;99.90;;;;;;5097031;28;20257;-79
2022/08/25 08:17:13;;;;;;;9.48;8.57;;;23.40;99.90;;;;;;5097243;28;20200;-79
2022/08/25 08:19:39;;;;;;;10.10;8.90;;;23.50;99.90;;;;;;5094069;28;20196;-80
2022/08/25 08:22:06;;;;;;;9.88;8.93;;;23.60;99.90;;;;;;5093943;28;20192;-79
2022/08/25 08:24:37;;;;;;;9.75;8.73;;;23.60;99.90;;;;;;5093652;28;20215;-80
2022/08/25 08:27:05;;;;;;;9.98;8.52;;;23.80;99.90;;;;;;5093682;28;20195;-79
2022/08/25 08:29:33;;;;;;;9.65;8.75;;;24.10;99.90;;;;;;5093483;28;20681;-79
2022/08/25 08:32:02;;;;;;;14.98;8.90;;;24.30;99.90;;;;;;5093697;28;20196;-79
2022/08/25 08:34:28;;;;;;;8.43;7.72;;;24.50;99.90;;;;;;5093617;28;20246;-79
2022/08/25 08:36:55;;;;;;;9.30;8.40;;;24.80;99.90;;;;;;5093468;28;20226;-79
2022/08/25 08:39:22;;;;;;;9.65;7.93;;;25.20;99.90;;;;;;5093335;28;20249;-79
2022/08/25 08:45:06;;;;;;;7.70;7.00;;;25.40;99.90;;;;;;5093430;28;20354;-79
2022/08/25 08:47:47;;;;;;;8.15;7.45;;;25.40;99.90;;;;;;5093652;28;20299;-79
2022/08/25 08:50:24;;;;;;;8.27;7.57;;;25.60;99.90;;;;;;5093200;28;20262;-79
2022/08/25 08:52:57;;;;;;;9.30;7.63;;;25.80;99.90;;;;;;5093494;28;20287;-79
2022/08/25 08:55:30;;;;;;;8.38;7.50;;;26.00;99.90;;;;;;5093073;28;20281;-79
2022/08/25 08:57:58;;;;;;;10.57;7.75;;;26.20;99.90;;;;;;5093384;28;20192;-79
2022/08/25 09:00:27;;;;;;;8.93;7.80;;;26.50;99.90;;;;;;5093413;28;20200;-79
2022/08/25 09:03:02;;;;;;;8.77;7.88;;;26.40;99.90;;;;;;5093300;28;20218;-79
2022/08/25 09:05:30;;;;;;;9.68;7.95;;;26.40;99.90;;;;;;5093230;28;20264;-79
2022/08/25 09:07:59;;;;;;;10.10;7.95;;;26.60;99.90;;;;;;5093273;28;20253;-78
2022/08/25 09:10:32;;;;;;;9.18;7.88;;;27.00;99.90;;;;;;5093102;28;20253;-79
2022/08/25 09:13:05;;;;;;;9.27;8.48;;;27.20;99.90;;;;;;5092984;28;20200;-79
2022/08/25 09:18:50;;;;;;;7.28;6.68;;;27.80;99.90;;;;;;5010884;28;20289;-79
2022/08/25 09:21:29;;;;;;;8.27;7.47;;;28.10;99.90;;;;;;5079043;28;20253;-79
2022/08/25 09:24:21;;;;;;;7.60;6.90;;;28.00;99.90;;;;;;5093134;28;20269;-78
2022/08/25 09:26:57;;;;;;;7.85;7.10;;;28.40;99.90;;;;;;5092804;28;20193;-78
2022/08/25 09:29:27;;;;;;;8.27;7.20;;;28.70;99.90;;;;;;5092831;28;20195;-78
2022/08/25 09:31:58;;;;;;;7.47;6.72;;;29.20;99.90;;;;;;5092996;28;20225;-78
2022/08/25 09:34:31;;;;;;;8.32;7.53;;;29.40;99.90;;;;;;5092881;28;20287;-78
2022/08/25 09:36:59;;;;;;;8.23;7.35;;;29.50;99.90;;;;;;5092750;28;20718;-79
2022/08/25 09:39:25;;;;;;;8.20;7.50;;;29.70;99.90;;;;;;5092842;28;20196;-78
2022/08/25 09:41:54;;;;;;;8.43;7.20;;;29.30;99.90;;;;;;5092567;28;20743;-78
2022/08/25 09:44:23;;;;;;;10.15;8.38;;;28.70;99.90;;;;;;5091066;28;20247;-78
2022/08/25 09:47:00;;;;;;;8.68;7.90;;;29.20;99.90;;;;;;5092752;28;20286;-80
2022/08/25 09:49:39;;;;;;;7.85;7.15;;;30.10;99.90;;;;;;5092693;28;20196;-79
2022/08/25 09:52:31;;;;;;;10.68;7.72;;;30.10;99.90;;;;;;5092596;28;20202;-79
2022/08/25 09:55:01;;;;;;;7.78;6.97;;;30.50;99.90;;;;;;5092552;28;20264;-79
2022/08/25 09:57:31;;;;;;;7.85;7.00;;;31.10;99.90;;;;;;5092531;28;20220;-79
2022/08/25 10:00:08;;;;;;;8.10;7.35;;;32.00;99.90;;;;;;5092574;28;20250;-79
2022/08/25 10:02:36;;;;;;;7.65;6.95;;;32.00;99.30;;;;;;5092576;28;20203;-79
2022/08/25 10:05:19;;;;;;;8.18;7.50;;;32.40;98.80;;;;;;5092245;28;20224;-79
2022/08/25 10:07:51;;;;;;;8.05;7.25;;;32.80;97.70;;;;;;5092627;28;20203;-79
2022/08/25 10:10:21;;;;;;;8.55;7.75;;;32.90;96.40;;;;;;5092526;28;20256;-79
2022/08/25 10:12:48;;;;;;;7.95;6.95;;;31.70;96.40;;;;;;5092683;28;20666;-79
2022/08/25 10:15:20;;;;;;;7.47;6.78;;;31.10;97.60;;;;;;5092365;28;20200;-79
2022/08/25 10:17:49;;;;;;;8.68;7.70;;;31.90;97.30;;;;;;5092702;28;20192;-79
2022/08/25 10:20:19;;;;;;;8.55;7.65;;;32.20;95.80;;;;;;5092475;28;20200;-79
2022/08/25 10:22:49;;;;;;;7.82;7.05;;;32.50;95.50;;;;;;5092335;28;20196;-79
2022/08/25 10:25:21;;;;;;;8.20;7.40;;;32.10;95.30;;;;;;5092288;28;20273;-79
2022/08/25 10:27:58;;;;;;;9.23;7.85;;;32.50;95.70;;;;;;5092277;28;20203;-79
2022/08/25 10:30:35;;;;;;;7.90;7.20;;;33.00;94.40;;;;;;5092479;28;20246;-79
2022/08/25 10:33:20;;;;;;;7.50;6.78;;;33.50;92.50;;;;;;5095231;28;20199;-79
2022/08/25 10:35:57;;;;;;;8.75;7.60;;;33.80;91.30;;;;;;5095962;28;20253;-79
2022/08/25 10:38:37;;;;;;;6.90;6.28;;;33.70;91.20;;;;;;5095471;28;20662;-79
2022/08/25 10:41:39;;;;;;;9.77;7.32;;;34.40;88.70;;;;;;5095902;28;20265;-79
2022/08/25 10:47:28;;;;;;;7.60;6.90;;;35.10;83.80;;;;;;5095974;28;20720;-79
2022/08/25 10:50:03;;;;;;;7.32;6.63;;;34.60;82.80;;;;;;5095699;28;20245;-79
2022/08/25 10:52:38;;;;;;;10.18;7.03;;;35.10;81.90;;;;;;5095700;28;20256;-80
2022/08/25 10:55:17;;;;;;;8.57;7.10;;;35.60;79.20;;;;;;5095421;28;20227;-79
2022/08/25 10:57:52;;;;;;;8.55;7.25;;;36.50;76.40;;;;;;5095590;28;20203;-79
2022/08/25 11:00:22;;;;;;;7.28;6.60;;;36.60;73.50;;;;;;5095570;28;20776;-78
2022/08/25 11:03:11;;;;;;;7.38;6.68;;;36.30;72.30;;;;;;5095931;28;20191;-79
2022/08/25 11:05:43;;;;;;;7.35;6.65;;;36.00;69.30;;;;;;5095419;28;20234;-79
2022/08/25 11:08:15;;;;;;;7.88;7.18;;;34.80;71.60;;;;;;5095765;28;20200;-78
2022/08/25 11:10:47;;;;;;;7.30;6.60;;;34.00;73.10;;;;;;5095143;28;20257;-78
2022/08/25 11:13:20;;;;;;;7.63;6.90;;;33.20;75.50;;;;;;5095100;28;20203;-77
2022/08/25 11:15:53;;;;;;;8.77;7.65;;;33.10;78.00;;;;;;5095008;28;20237;-77
2022/08/25 11:18:21;;;;;;;8.48;7.60;;;34.00;77.80;;;;;;5094822;28;20643;-80
2022/08/25 11:20:59;;;;;;;8.45;7.40;;;35.70;75.40;;;;;;5094635;28;20655;-79
2022/08/25 11:23:32;;;;;;;8.35;7.55;;;36.20;71.60;;;;;;5094759;28;20663;-79
2022/08/25 11:26:04;;;;;;;9.80;6.90;;;37.00;70.00;;;;;;5094791;28;20223;-79
2022/08/25 11:28:33;;;;;;;7.88;7.18;;;37.30;66.90;;;;;;5095041;28;20192;-79
2022/08/25 11:31:01;;;;;;;7.50;6.70;;;37.40;66.50;;;;;;5094931;28;20245;-79
2022/08/25 11:33:30;;;;;;;6.63;6.03;;;36.60;64.50;;;;;;5094787;28;20200;-79
2022/08/25 11:36:02;;;;;;;7.63;6.93;;;37.80;62.90;;;;;;5094633;28;20208;-78
2022/08/25 11:38:42;;;;;;;7.80;5.90;;;38.40;58.50;;;;;;5094564;28;20196;-78
2022/08/25 11:41:22;;;;;;;6.97;6.22;;;38.60;56.80;;;;;;5094788;28;20200;-80
2022/08/25 11:44:01;;;;;;;9.68;6.43;;;39.20;55.20;;;;;;5094078;28;20563;-79
2022/08/25 11:46:44;;;;;;;9.07;7.30;;;39.70;52.90;;;;;;5094453;28;20280;-79
2022/08/25 11:49:29;;;;;;;7.07;6.18;;;39.40;51.40;;;;;;5094257;28;20655;-79
2022/08/25 11:51:58;;;;;;;8.82;6.30;;;38.70;51.00;;;;;;5094620;28;20206;-79
2022/08/25 11:54:28;;;;;;;7.10;6.55;;;37.30;51.80;;;;;;5094300;28;20269;-79
2022/08/25 11:57:01;;;;;;;7.97;7.00;;;35.60;54.30;;;;;;5094254;28;20252;-79
2022/08/25 12:00:18;;;;;;;7.15;6.53;;;34.50;55.70;;;;;;5094074;28;20199;-78
2022/08/25 12:02:46;;;;;;;8.45;7.18;;;33.90;56.70;;;;;;5031799;28;20194;-78
2022/08/25 12:05:46;;;;;;;7.95;7.15;;;33.20;59.10;;;;;;5079503;28;20280;-79
2022/08/25 12:11:01;;;;;;;9.23;6.90;;;34.80;58.80;;;;;;5093988;28;20199;-79
2022/08/25 12:13:46;;;;;;;7.65;6.95;;;34.30;59.00;;;;;;5093926;28;20253;-79
2022/08/25 12:16:41;;;;;;;8.00;7.18;;;33.90;58.70;;;;;;5093780;28;20192;-79
2022/08/25 12:19:30;;;;;;;7.72;7.03;;;33.70;59.00;;;;;;5093944;28;20655;-79
2022/08/25 12:22:18;;;;;;;7.90;7.20;;;33.20;59.80;;;;;;5089539;28;20246;-79
2022/08/25 12:24:52;;;;;;;7.93;7.13;;;32.80;59.40;;;;;;5093528;28;20230;-78
2022/08/25 12:27:25;;;;;;;11.48;7.60;;;32.50;61.40;;;;;;5094798;28;20200;-78
2022/08/25 12:29:55;;;;;;;8.50;7.30;;;31.80;61.90;;;;;;5094959;28;20754;-79
2022/08/25 12:32:45;;;;;;;6.70;6.10;;;32.90;62.10;;;;;;5094756;28;20713;-79
2022/08/25 12:35:23;;;;;;;7.65;6.55;;;35.60;59.00;;;;;;5094857;28;20217;-79
2022/08/25 12:37:57;;;;;;;7.65;7.00;;;35.60;55.90;;;;;;5094742;28;20206;-79
2022/08/25 12:40:30;;;;;;;12.20;7.35;;;35.40;56.30;;;;;;5095071;28;20195;-79
2022/08/25 12:43:09;;;;;;;9.05;7.22;;;34.80;57.20;;;;;;5095498;28;20618;-79
2022/08/25 12:45:42;;;;;;;8.82;7.15;;;35.00;57.10;;;;;;5095060;28;20208;-79
2022/08/25 12:48:55;;;;;;;9.45;7.30;;;35.80;56.00;;;;;;5093982;28;20652;-79
2022/08/25 12:51:25;;;;;;;7.18;6.38;;;37.80;54.40;;;;;;5031220;28;20197;-78
2022/08/25 12:53:54;;;;;;;7.57;6.13;;;40.00;49.70;;;;;;5030185;28;20723;-79
2022/08/25 12:56:31;;;;;;;7.78;6.47;;;40.20;48.30;;;;;;5066341;28;20203;-79
2022/08/25 12:59:14;;;;;;;6.57;6.07;;;41.50;46.20;;;;;;5093100;28;20716;-79
2022/08/25 13:02:02;;;;;;;8.20;6.05;;;40.30;43.40;;;;;;5093134;28;20712;-78
2022/08/25 13:04:47;;;;;;;7.63;6.20;;;38.20;43.50;;;;;;5093248;28;20196;-78
2022/08/25 13:07:25;;;;;;;8.50;6.60;;;36.90;46.40;;;;;;5093181;28;20195;-77